createdAt,value
2018-08-25T00:00:03.931Z,79.75
2018-08-25T00:01:03.900Z,79.95
2018-08-25T00:02:03.857Z,79.85
2018-08-25T00:03:03.824Z,79.33
2018-08-25T00:04:03.789Z,79.95
2018-08-25T00:05:03.752Z,79.81
2018-08-25T00:06:03.724Z,79.95
2018-08-25T00:07:03.719Z,78.89
2018-08-25T00:08:03.675Z,79.37
2018-08-25T00:09:03.622Z,78.47
2018-08-25T00:10:03.577Z,78.86
2018-08-25T00:11:03.545Z,78.19
2018-08-25T00:12:03.511Z,77.90
2018-08-25T00:13:03.478Z,77.70
2018-08-25T00:14:03.437Z,77.42
2018-08-25T00:15:03.404Z,77.51
2018-08-25T00:16:03.369Z,77.23
2018-08-25T00:17:03.335Z,77.23
2018-08-25T00:18:03.306Z,76.84
2018-08-25T00:19:03.273Z,77.42
2018-08-25T00:20:03.228Z,76.75
2018-08-25T00:21:03.198Z,77.13
2018-08-25T00:22:03.155Z,77.13
2018-08-25T00:23:03.122Z,77.04
2018-08-25T00:24:03.086Z,77.04
2018-08-25T00:25:03.054Z,76.94
2018-08-25T00:26:03.021Z,76.37
2018-08-25T00:27:02.985Z,76.08
2018-08-25T00:28:02.951Z,76.46
2018-08-25T00:29:02.909Z,75.22
2018-08-25T00:30:02.882Z,75.79
2018-08-25T00:31:02.845Z,75.70
2018-08-25T00:32:02.810Z,75.60
2018-08-25T00:33:02.781Z,75.79
2018-08-25T00:34:02.734Z,75.31
2018-08-25T00:35:02.705Z,75.22
2018-08-25T00:36:02.667Z,75.31
2018-08-25T00:37:02.632Z,75.60
2018-08-25T00:38:02.603Z,76.08
2018-08-25T00:39:02.561Z,75.79
2018-08-25T00:40:02.530Z,74.84
2018-08-25T00:41:02.494Z,74.65
2018-08-25T00:42:02.453Z,75.12
2018-08-25T00:43:02.419Z,74.74
2018-08-25T00:44:02.388Z,74.84
2018-08-25T00:45:02.355Z,75.51
2018-08-25T00:46:02.318Z,74.93
2018-08-25T00:47:02.281Z,74.65
2018-08-25T00:48:02.246Z,75.02
2018-08-25T00:49:02.214Z,73.97
2018-08-25T00:50:02.187Z,72.83
2018-08-25T00:51:02.140Z,72.34
2018-08-25T00:52:02.106Z,71.73
2018-08-25T00:53:02.072Z,70.78
2018-08-25T00:54:02.033Z,70.50
2018-08-25T00:55:01.998Z,70.40
2018-08-25T00:56:01.963Z,69.64
2018-08-25T00:57:01.927Z,69.54
2018-08-25T00:58:01.899Z,68.20
2018-08-25T00:59:01.873Z,69.35
2018-08-25T01:00:01.821Z,68.58
2018-08-25T01:01:01.784Z,68.39
2018-08-25T01:02:01.759Z,68.29
2018-08-25T01:03:01.716Z,67.82
2018-08-25T01:04:01.683Z,67.14
2018-08-25T01:05:01.650Z,67.14
2018-08-25T01:06:01.607Z,67.43
2018-08-25T01:07:01.574Z,67.14
2018-08-25T01:08:01.541Z,67.53
2018-08-25T01:09:01.507Z,65.52
2018-08-25T01:10:01.475Z,66.09
2018-08-25T01:11:01.438Z,66.09
2018-08-25T01:12:01.399Z,66.47
2018-08-25T01:13:01.365Z,66.00
2018-08-25T01:14:01.325Z,66.09
2018-08-25T01:15:01.290Z,65.42
2018-08-25T01:16:01.262Z,64.85
2018-08-25T01:17:01.225Z,64.09
2018-08-25T01:18:01.188Z,64.75
2018-08-25T01:19:01.152Z,64.47
2018-08-25T01:20:01.115Z,64.09
2018-08-25T01:21:01.077Z,63.60
2018-08-25T01:22:01.053Z,62.46
2018-08-25T01:23:01.008Z,62.74
2018-08-25T01:24:00.984Z,61.60
2018-08-25T01:25:00.942Z,61.51
2018-08-25T01:26:00.903Z,61.41
2018-08-25T01:27:00.869Z,60.26
2018-08-25T01:28:00.835Z,59.69
2018-08-25T01:29:00.793Z,59.30
2018-08-25T01:30:00.767Z,58.73
2018-08-25T01:31:00.725Z,57.97
2018-08-25T01:32:00.690Z,57.48
2018-08-25T01:33:00.658Z,57.68
2018-08-25T01:34:00.626Z,57.48
2018-08-25T01:35:00.587Z,56.82
2018-08-25T01:36:00.551Z,55.96
2018-08-25T01:37:00.518Z,55.38
2018-08-25T01:38:00.473Z,55.29
2018-08-25T01:39:00.439Z,55.57
2018-08-25T01:40:00.404Z,51.65
2018-08-25T01:41:00.367Z,49.64
2018-08-25T01:42:00.340Z,45.91
2018-08-25T01:43:00.299Z,42.94
2018-08-25T01:44:00.265Z,40.46
2018-08-25T01:45:00.234Z,37.21
2018-08-25T01:46:00.194Z,34.99
2018-08-25T01:47:00.156Z,33.86
2018-08-25T01:48:00.123Z,32.71
2018-08-25T01:49:00.089Z,32.33
2018-08-25T01:50:00.052Z,32.62
2018-08-25T01:51:00.012Z,32.62
2018-08-25T01:51:59.977Z,31.37
2018-08-25T01:52:59.950Z,29.63
2018-08-25T01:53:59.915Z,27.72
2018-08-25T01:54:59.879Z,26.96
2018-08-25T01:55:59.839Z,26.57
2018-08-25T01:56:59.805Z,24.85
2018-08-25T01:57:59.763Z,24.48
2018-08-25T01:58:59.735Z,24.66
2018-08-25T01:59:59.693Z,23.52
2018-08-25T02:00:59.657Z,22.75
2018-08-25T02:01:59.629Z,22.56
2018-08-25T02:02:59.593Z,22.56
2018-08-25T02:03:59.563Z,21.89
2018-08-25T02:04:59.518Z,21.51
2018-08-25T02:05:59.485Z,21.70
2018-08-25T02:06:59.448Z,21.51
2018-08-25T02:07:59.411Z,21.89
2018-08-25T02:08:59.430Z,21.70
2018-08-25T02:09:59.337Z,22.47
2018-08-25T02:10:59.300Z,21.80
2018-08-25T02:11:59.273Z,22.08
2018-08-25T02:12:59.234Z,21.98
2018-08-25T02:13:59.210Z,22.56
2018-08-25T02:14:59.159Z,22.18
2018-08-25T02:15:59.125Z,23.04
2018-08-25T02:16:59.091Z,23.61
2018-08-25T02:17:59.055Z,23.33
2018-08-25T02:18:59.015Z,24.19
2018-08-25T02:19:58.986Z,23.71
2018-08-25T02:20:58.951Z,24.38
2018-08-25T02:21:58.910Z,24.10
2018-08-25T02:22:58.872Z,24.09
2018-08-25T02:23:58.837Z,23.13
2018-08-25T02:24:58.802Z,23.23
2018-08-25T02:25:58.771Z,22.56
2018-08-25T02:26:58.731Z,23.23
2018-08-25T02:27:58.700Z,22.75
2018-08-25T02:28:58.662Z,22.27
2018-08-25T02:29:58.624Z,21.89
2018-08-25T02:30:58.587Z,21.89
2018-08-25T02:31:58.550Z,21.98
2018-08-25T02:32:58.514Z,20.17
2018-08-25T02:33:58.485Z,19.02
2018-08-25T02:34:58.444Z,15.77
2018-08-25T02:35:58.407Z,15.20
2018-08-25T02:36:58.372Z,13.00
2018-08-25T02:37:58.340Z,11.28
2018-08-25T02:38:58.309Z,8.70
2018-08-25T02:39:58.265Z,7.17
2018-08-25T02:40:58.232Z,6.30
2018-08-25T02:41:58.190Z,3.63
2018-08-25T02:42:58.156Z,5.16
2018-08-25T02:43:58.119Z,5.35
2018-08-25T02:44:58.086Z,0.67
2018-08-25T02:45:58.057Z,0.00
2018-08-25T02:46:58.020Z,0.00
2018-08-25T02:47:57.981Z,0.00
2018-08-25T02:48:57.944Z,0.00
2018-08-25T02:49:57.907Z,0.00
2018-08-25T02:50:57.870Z,0.00
2018-08-25T02:51:57.840Z,0.00
2018-08-25T02:52:57.801Z,0.00
2018-08-25T02:53:57.765Z,0.00
2018-08-25T02:54:57.724Z,0.00
2018-08-25T02:55:57.689Z,0.00
2018-08-25T02:56:57.657Z,0.00
2018-08-25T02:57:57.621Z,0.00
2018-08-25T02:58:57.587Z,0.00
2018-08-25T02:59:57.551Z,0.00
2018-08-25T03:00:57.514Z,0.00
2018-08-25T03:01:57.479Z,0.00
2018-08-25T03:02:57.449Z,0.00
2018-08-25T03:03:57.403Z,0.00
2018-08-25T03:04:57.373Z,0.00
2018-08-25T03:05:57.341Z,0.00
2018-08-25T03:06:57.298Z,0.00
2018-08-25T03:07:57.258Z,0.00
2018-08-25T03:08:57.226Z,0.00
2018-08-25T03:09:57.191Z,0.00
2018-08-25T03:10:57.158Z,0.00
2018-08-25T03:11:57.124Z,0.00
2018-08-25T03:12:57.084Z,0.00
2018-08-25T03:13:57.044Z,0.00
2018-08-25T03:14:57.007Z,0.00
2018-08-25T03:15:56.969Z,0.00
2018-08-25T03:16:56.936Z,0.00
2018-08-25T03:17:56.904Z,0.00
2018-08-25T03:18:56.874Z,0.00
2018-08-25T03:19:56.841Z,0.00
2018-08-25T03:20:56.797Z,0.00
2018-08-25T03:21:56.756Z,0.00
2018-08-25T03:22:56.716Z,0.00
2018-08-25T03:23:56.690Z,0.00
2018-08-25T03:24:56.654Z,0.00
2018-08-25T03:25:56.616Z,0.00
2018-08-25T03:26:56.574Z,0.00
2018-08-25T03:27:56.539Z,0.00
2018-08-25T03:28:56.500Z,0.00
2018-08-25T03:29:56.469Z,0.00
2018-08-25T03:30:56.437Z,0.00
2018-08-25T03:31:56.398Z,0.00
2018-08-25T03:32:56.369Z,0.00
2018-08-25T03:33:56.332Z,0.00
2018-08-25T03:34:56.284Z,0.00
2018-08-25T03:35:56.246Z,0.00
2018-08-25T03:36:56.223Z,0.00
2018-08-25T03:37:56.179Z,0.00
2018-08-25T03:38:56.144Z,0.00
2018-08-25T03:39:56.106Z,0.00
2018-08-25T03:40:56.072Z,0.00
2018-08-25T03:41:56.034Z,0.00
2018-08-25T03:42:56.003Z,0.00
2018-08-25T03:43:55.963Z,0.00
2018-08-25T03:44:55.925Z,0.00
2018-08-25T03:45:55.888Z,0.00
2018-08-25T03:46:55.854Z,0.00
2018-08-25T03:47:55.821Z,0.00
2018-08-25T03:48:55.784Z,0.00
2018-08-25T03:49:55.744Z,0.00
2018-08-25T03:50:55.710Z,0.00
2018-08-25T03:51:55.672Z,0.00
2018-08-25T03:52:55.635Z,0.00
2018-08-25T03:53:55.597Z,0.00
2018-08-25T04:07:39.978Z,0.00
2018-08-25T04:08:39.890Z,0.00
2018-08-25T04:09:39.847Z,0.00
2018-08-25T04:10:39.806Z,0.00
2018-08-25T04:11:39.766Z,0.00
2018-08-25T04:12:39.732Z,0.00
2018-08-25T04:13:39.693Z,0.00
2018-08-25T04:14:39.676Z,0.00
2018-08-25T04:15:39.608Z,0.00
2018-08-25T04:16:39.570Z,0.00
2018-08-25T04:17:39.545Z,0.00
2018-08-25T04:18:39.499Z,0.00
2018-08-25T04:19:39.463Z,0.00
2018-08-25T04:20:39.426Z,0.00
2018-08-25T04:21:39.386Z,0.00
2018-08-25T04:22:39.346Z,0.00
2018-08-25T04:23:39.319Z,0.00
2018-08-25T04:24:39.269Z,0.00
2018-08-25T04:25:39.235Z,0.00
2018-08-25T04:26:39.201Z,0.00
2018-08-25T04:27:39.165Z,0.00
2018-08-25T04:28:39.128Z,0.00
2018-08-25T04:29:39.086Z,0.00
2018-08-25T04:30:39.047Z,0.00
2018-08-25T04:31:39.016Z,0.00
2018-08-25T04:32:38.981Z,0.00
2018-08-25T04:33:38.946Z,0.00
2018-08-25T04:34:38.906Z,0.00
2018-08-25T04:35:38.863Z,0.00
2018-08-25T04:36:38.828Z,0.00
2018-08-25T04:37:38.792Z,0.00
2018-08-25T04:38:38.758Z,0.00
2018-08-25T04:39:38.720Z,0.00
2018-08-25T04:40:38.683Z,0.00
2018-08-25T04:41:38.649Z,0.00
2018-08-25T04:42:38.606Z,0.00
2018-08-25T04:43:38.574Z,0.00
2018-08-25T04:44:38.535Z,0.00
2018-08-25T04:45:38.504Z,0.00
2018-08-25T04:46:38.464Z,0.00
2018-08-25T04:47:38.431Z,0.00
2018-08-25T04:48:38.388Z,0.00
2018-08-25T04:49:38.355Z,0.00
2018-08-25T04:50:38.326Z,0.00
2018-08-25T04:51:38.288Z,0.00
2018-08-25T04:52:38.247Z,0.00
2018-08-25T04:53:38.215Z,0.00
2018-08-25T04:54:38.170Z,0.00
2018-08-25T04:55:38.136Z,0.00
2018-08-25T04:56:38.096Z,0.00
2018-08-25T04:57:38.060Z,0.00
2018-08-25T04:58:38.030Z,0.00
2018-08-25T04:59:37.984Z,0.00
2018-08-25T05:00:37.953Z,0.00
2018-08-25T05:01:37.925Z,0.00
2018-08-25T05:02:37.873Z,0.00
2018-08-25T05:03:37.844Z,0.00
2018-08-25T05:04:37.808Z,0.00
2018-08-25T05:05:37.768Z,0.00
2018-08-25T05:06:37.743Z,0.00
2018-08-25T05:07:37.704Z,0.00
2018-08-25T05:08:37.659Z,0.00
2018-08-25T05:09:37.622Z,0.00
2018-08-25T05:10:37.588Z,0.00
2018-08-25T05:11:37.564Z,0.00
2018-08-25T05:12:37.509Z,0.00
2018-08-25T05:13:37.483Z,0.00
2018-08-25T05:14:37.438Z,0.00
2018-08-25T05:15:37.406Z,0.00
2018-08-25T05:16:37.367Z,0.00
2018-08-25T05:17:37.331Z,0.00
2018-08-25T05:18:37.292Z,0.00
2018-08-25T05:19:37.253Z,0.00
2018-08-25T05:20:37.226Z,0.00
2018-08-25T05:21:37.182Z,0.00
2018-08-25T05:22:37.142Z,0.00
2018-08-25T05:23:37.113Z,0.00
2018-08-25T05:24:37.075Z,0.00
2018-08-25T05:25:37.036Z,0.00
2018-08-25T05:26:36.996Z,0.00
2018-08-25T05:27:36.965Z,0.00
2018-08-25T05:28:36.925Z,0.00
2018-08-25T05:29:36.892Z,0.00
2018-08-25T05:30:36.855Z,0.00
2018-08-25T05:31:36.833Z,0.00
2018-08-25T05:32:36.778Z,0.00
2018-08-25T05:33:36.743Z,0.00
2018-08-25T05:34:36.701Z,0.00
2018-08-25T05:35:36.673Z,0.00
2018-08-25T05:36:36.634Z,0.00
2018-08-25T05:37:36.599Z,0.00
2018-08-25T05:38:36.563Z,0.00
2018-08-25T05:39:36.517Z,0.00
2018-08-25T05:40:36.485Z,0.00
2018-08-25T05:41:36.448Z,0.00
2018-08-25T05:42:36.415Z,0.00
2018-08-25T05:43:36.371Z,0.00
2018-08-25T05:44:36.337Z,0.00
2018-08-25T05:45:36.303Z,0.00
2018-08-25T05:46:36.269Z,0.00
2018-08-25T05:47:36.229Z,0.00
2018-08-25T05:48:36.189Z,0.00
2018-08-25T05:49:36.152Z,0.00
2018-08-25T05:50:36.117Z,0.00
2018-08-25T05:51:36.076Z,0.00
2018-08-25T05:52:36.043Z,0.00
2018-08-25T05:53:36.006Z,0.00
2018-08-25T05:54:35.965Z,0.00
2018-08-25T05:55:35.936Z,0.00
2018-08-25T05:56:35.898Z,0.00
2018-08-25T05:57:35.916Z,0.00
2018-08-25T05:58:35.815Z,0.00
2018-08-25T05:59:35.794Z,0.00
2018-08-25T06:00:35.747Z,0.00
2018-08-25T06:01:35.709Z,0.00
2018-08-25T06:02:35.674Z,0.00
2018-08-25T06:03:35.631Z,0.00
2018-08-25T06:04:35.596Z,0.00
2018-08-25T06:05:35.560Z,0.00
2018-08-25T06:06:35.544Z,0.00
2018-08-25T06:07:35.491Z,0.00
2018-08-25T06:08:35.448Z,0.00
2018-08-25T06:09:35.415Z,0.00
2018-08-25T06:10:35.380Z,0.00
2018-08-25T06:11:35.335Z,0.00
2018-08-25T06:12:35.371Z,0.00
2018-08-25T06:13:35.358Z,0.00
2018-08-25T06:14:35.227Z,0.00
2018-08-25T06:15:35.189Z,0.00
2018-08-25T06:16:35.158Z,0.00
2018-08-25T06:17:35.125Z,0.00
2018-08-25T06:18:35.073Z,0.00
2018-08-25T06:19:35.042Z,0.00
2018-08-25T06:20:35.005Z,0.00
2018-08-25T06:21:34.967Z,0.00
2018-08-25T06:22:34.931Z,0.00
2018-08-25T06:23:34.891Z,0.00
2018-08-25T06:24:34.851Z,0.00
2018-08-25T06:25:34.815Z,0.00
2018-08-25T06:26:34.779Z,0.00
2018-08-25T06:27:34.745Z,0.00
2018-08-25T06:28:34.705Z,0.00
2018-08-25T06:29:34.717Z,0.00
2018-08-25T06:30:34.628Z,0.00
2018-08-25T06:31:34.597Z,0.00
2018-08-25T06:32:34.558Z,0.00
2018-08-25T06:33:34.524Z,0.00
2018-08-25T06:34:34.486Z,0.00
2018-08-25T06:35:34.443Z,0.00
2018-08-25T06:36:34.457Z,0.00
2018-08-25T06:37:34.372Z,0.00
2018-08-25T06:38:34.332Z,0.00
2018-08-25T06:39:34.304Z,0.00
2018-08-25T06:40:34.261Z,0.00
2018-08-25T06:41:34.224Z,0.00
2018-08-25T06:42:34.204Z,0.00
2018-08-25T06:43:34.154Z,0.00
2018-08-25T06:44:34.113Z,0.00
2018-08-25T06:45:34.077Z,0.00
2018-08-25T06:46:34.041Z,0.00
2018-08-25T06:47:34.001Z,0.00
2018-08-25T06:48:33.968Z,0.00
2018-08-25T06:49:33.934Z,0.00
2018-08-25T06:50:33.890Z,0.00
2018-08-25T06:51:33.861Z,0.00
2018-08-25T06:52:33.820Z,0.00
2018-08-25T06:53:33.789Z,0.00
2018-08-25T06:54:33.749Z,0.00
2018-08-25T06:55:33.707Z,0.00
2018-08-25T06:56:33.671Z,0.00
2018-08-25T06:57:33.635Z,0.00
2018-08-25T06:58:33.598Z,0.00
2018-08-25T06:59:33.621Z,0.00
2018-08-25T07:00:33.527Z,0.00
2018-08-25T07:01:33.489Z,0.00
2018-08-25T07:02:33.455Z,0.00
2018-08-25T07:03:33.427Z,0.00
2018-08-25T07:04:33.381Z,0.00
2018-08-25T07:05:33.344Z,0.00
2018-08-25T07:06:33.320Z,0.00
2018-08-25T07:07:33.269Z,0.00
2018-08-25T07:08:33.232Z,0.00
2018-08-25T07:09:33.199Z,0.00
2018-08-25T07:10:33.163Z,0.00
2018-08-25T07:11:33.129Z,0.00
2018-08-25T07:12:33.088Z,0.00
2018-08-25T07:13:33.055Z,0.00
2018-08-25T07:14:33.020Z,0.00
2018-08-25T07:15:32.977Z,0.00
2018-08-25T07:16:32.942Z,0.00
2018-08-25T07:17:32.907Z,0.00
2018-08-25T07:18:32.875Z,0.00
2018-08-25T07:19:32.833Z,0.00
2018-08-25T07:20:32.796Z,0.00
2018-08-25T07:21:32.761Z,0.00
2018-08-25T07:22:32.723Z,0.00
2018-08-25T07:23:32.697Z,0.00
2018-08-25T07:24:32.655Z,0.00
2018-08-25T07:25:32.620Z,0.00
2018-08-25T07:26:32.582Z,0.00
2018-08-25T07:27:32.545Z,0.00
2018-08-25T07:28:32.506Z,0.00
2018-08-25T07:29:32.470Z,0.00
2018-08-25T07:30:32.436Z,0.00
2018-08-25T07:31:32.401Z,0.00
2018-08-25T07:32:32.372Z,0.00
2018-08-25T07:33:32.329Z,0.00
2018-08-25T07:34:32.291Z,0.00
2018-08-25T07:35:32.258Z,0.00
2018-08-25T07:36:32.224Z,0.00
2018-08-25T07:37:32.193Z,0.00
2018-08-25T07:38:32.155Z,0.00
2018-08-25T07:39:32.113Z,0.00
2018-08-25T07:40:32.071Z,0.00
2018-08-25T07:41:32.038Z,0.00
2018-08-25T07:42:32.002Z,0.00
2018-08-25T07:43:31.970Z,2.39
2018-08-25T07:44:31.933Z,1.05
2018-08-25T07:45:31.897Z,2.86
2018-08-25T07:46:31.860Z,2.00
2018-08-25T07:47:31.824Z,0.00
2018-08-25T07:48:31.796Z,4.77
2018-08-25T07:49:31.811Z,6.30
2018-08-25T07:50:31.715Z,4.11
2018-08-25T07:51:31.677Z,1.24
2018-08-25T07:52:31.641Z,2.96
2018-08-25T07:53:31.602Z,1.43
2018-08-25T07:54:31.571Z,4.39
2018-08-25T07:55:31.545Z,6.59
2018-08-25T07:56:31.507Z,8.50
2018-08-25T07:57:31.466Z,9.27
2018-08-25T07:58:31.454Z,8.70
2018-08-25T07:59:31.386Z,9.94
2018-08-25T08:00:31.350Z,14.15
2018-08-25T08:01:31.316Z,16.73
2018-08-25T08:02:31.281Z,14.34
2018-08-25T08:03:31.249Z,19.40
2018-08-25T08:04:31.218Z,18.26
2018-08-25T08:05:31.229Z,20.07
2018-08-25T08:06:31.139Z,19.12
2018-08-25T08:07:31.107Z,17.29
2018-08-25T08:08:31.081Z,21.22
2018-08-25T08:09:31.033Z,22.08
2018-08-25T08:10:30.999Z,16.82
2018-08-25T08:11:30.970Z,17.49
2018-08-25T08:12:30.926Z,21.32
2018-08-25T08:13:30.885Z,20.84
2018-08-25T08:14:30.850Z,17.97
2018-08-25T08:15:30.821Z,16.35
2018-08-25T08:16:30.782Z,16.25
2018-08-25T08:17:30.750Z,15.96
2018-08-25T08:18:30.710Z,17.49
2018-08-25T08:19:30.672Z,16.82
2018-08-25T08:20:30.635Z,23.42
2018-08-25T08:21:30.604Z,19.97
2018-08-25T08:22:30.573Z,18.54
2018-08-25T08:23:30.528Z,21.02
2018-08-25T08:24:30.490Z,23.04
2018-08-25T08:25:30.494Z,23.52
2018-08-25T08:26:30.421Z,24.76
2018-08-25T08:27:30.388Z,19.02
2018-08-25T08:28:30.353Z,24.95
2018-08-25T08:29:30.321Z,22.27
2018-08-25T08:30:30.282Z,24.77
2018-08-25T08:31:30.241Z,25.54
2018-08-25T08:32:30.202Z,26.68
2018-08-25T08:33:30.168Z,24.10
2018-08-25T08:34:30.133Z,27.45
2018-08-25T08:35:30.103Z,29.46
2018-08-25T08:36:30.067Z,29.36
2018-08-25T08:37:30.030Z,32.81
2018-08-25T08:38:29.997Z,31.47
2018-08-25T08:39:30.007Z,27.93
2018-08-25T08:40:29.924Z,29.36
2018-08-25T08:41:29.888Z,34.63
2018-08-25T08:42:29.855Z,33.76
2018-08-25T08:43:29.817Z,30.32
2018-08-25T08:44:29.777Z,30.22
2018-08-25T08:45:29.776Z,29.36
2018-08-25T08:46:29.711Z,29.27
2018-08-25T08:47:29.689Z,30.03
2018-08-25T08:48:29.641Z,34.05
2018-08-25T08:49:29.611Z,30.62
2018-08-25T08:50:29.600Z,32.92
2018-08-25T08:51:29.532Z,39.03
2018-08-25T08:52:29.491Z,40.46
2018-08-25T08:53:29.463Z,35.96
2018-08-25T08:54:29.425Z,36.06
2018-08-25T08:55:29.390Z,39.89
2018-08-25T08:56:29.353Z,40.46
2018-08-25T08:57:29.318Z,34.34
2018-08-25T08:58:29.282Z,37.59
2018-08-25T08:59:29.249Z,35.39
2018-08-25T09:00:29.215Z,35.10
2018-08-25T09:01:29.179Z,37.88
2018-08-25T09:02:29.140Z,37.04
2018-08-25T09:03:29.169Z,45.26
2018-08-25T09:04:29.083Z,42.30
2018-08-25T09:05:29.030Z,41.53
2018-08-25T09:06:28.997Z,42.20
2018-08-25T09:07:28.966Z,47.08
2018-08-25T09:08:28.931Z,43.35
2018-08-25T09:09:28.891Z,43.83
2018-08-25T09:10:28.856Z,42.32
2018-08-25T09:11:28.889Z,43.08
2018-08-25T09:12:28.789Z,51.89
2018-08-25T09:13:28.755Z,48.54
2018-08-25T09:14:28.719Z,51.79
2018-08-25T09:15:28.686Z,54.57
2018-08-25T09:16:28.646Z,57.67
2018-08-25T09:17:28.609Z,57.54
2018-08-25T09:18:28.577Z,57.54
2018-08-25T09:19:28.563Z,59.05
2018-08-25T09:20:28.509Z,54.26
2018-08-25T09:21:28.478Z,53.20
2018-08-25T09:22:28.443Z,52.34
2018-08-25T09:23:28.408Z,52.06
2018-08-25T09:24:28.364Z,52.92
2018-08-25T09:25:28.335Z,48.83
2018-08-25T09:26:28.299Z,52.63
2018-08-25T09:27:28.345Z,52.75
2018-08-25T09:28:28.232Z,59.91
2018-08-25T09:29:28.189Z,53.23
2018-08-25T09:30:28.157Z,56.10
2018-08-25T09:31:28.126Z,56.59
2018-08-25T09:32:28.090Z,59.84
2018-08-25T09:33:28.057Z,59.17
2018-08-25T09:34:28.021Z,58.69
2018-08-25T09:35:27.984Z,56.77
2018-08-25T09:36:28.062Z,62.90
2018-08-25T09:37:27.918Z,56.94
2018-08-25T09:38:27.880Z,58.59
2018-08-25T09:39:27.853Z,58.59
2018-08-25T09:40:27.810Z,59.08
2018-08-25T09:41:27.772Z,57.83
2018-08-25T09:42:27.741Z,55.91
2018-08-25T09:43:27.705Z,57.64
2018-08-25T09:44:27.671Z,58.18
2018-08-25T09:45:27.637Z,53.40
2018-08-25T09:46:27.603Z,53.02
2018-08-25T09:47:27.563Z,53.20
2018-08-25T09:48:27.528Z,50.34
2018-08-25T09:49:27.497Z,51.87
2018-08-25T09:50:27.461Z,53.97
2018-08-25T09:51:27.432Z,52.34
2018-08-25T09:52:27.392Z,51.77
2018-08-25T09:53:27.385Z,52.25
2018-08-25T09:54:27.319Z,52.34
2018-08-25T09:55:27.283Z,49.00
2018-08-25T09:56:27.244Z,51.68
2018-08-25T09:57:27.249Z,54.45
2018-08-25T09:58:27.235Z,55.22
2018-08-25T09:59:27.143Z,53.20
2018-08-25T10:00:27.110Z,52.25
2018-08-25T10:01:27.071Z,54.26
2018-08-25T10:02:27.037Z,55.19
2018-08-25T10:03:27.004Z,53.56
2018-08-25T10:04:26.970Z,53.59
2018-08-25T10:05:26.939Z,53.02
2018-08-25T10:06:26.902Z,53.20
2018-08-25T10:21:13.060Z,56.87
2018-08-25T10:22:12.994Z,56.77
2018-08-25T10:23:12.957Z,53.91
2018-08-25T10:24:12.919Z,55.91
2018-08-25T10:25:12.876Z,57.16
2018-08-25T10:26:12.835Z,56.49
2018-08-25T10:27:12.795Z,55.82
2018-08-25T10:28:12.766Z,60.03
2018-08-25T10:29:12.731Z,57.54
2018-08-25T10:30:12.687Z,57.64
2018-08-25T10:31:12.652Z,59.05
2018-08-25T10:32:12.612Z,57.61
2018-08-25T10:33:12.579Z,54.83
2018-08-25T10:34:12.539Z,54.36
2018-08-25T10:35:12.507Z,53.02
2018-08-25T10:36:12.472Z,52.44
2018-08-25T10:37:12.434Z,52.92
2018-08-25T10:38:12.398Z,52.92
2018-08-25T10:39:12.364Z,52.63
2018-08-25T10:40:12.322Z,53.71
2018-08-25T10:41:12.289Z,54.36
2018-08-25T10:42:12.347Z,53.33
2018-08-25T10:43:12.222Z,52.73
2018-08-25T10:44:12.180Z,56.75
2018-08-25T10:45:12.159Z,59.91
2018-08-25T10:46:12.113Z,57.32
2018-08-25T10:47:12.076Z,56.30
2018-08-25T10:48:12.163Z,55.24
2018-08-25T10:49:12.048Z,56.59
2018-08-25T10:50:11.974Z,61.37
2018-08-25T10:51:11.939Z,60.22
2018-08-25T10:52:11.899Z,61.08
2018-08-25T10:53:11.863Z,57.54
2018-08-25T10:54:11.831Z,55.73
2018-08-25T10:55:11.792Z,58.02
2018-08-25T10:56:11.759Z,56.87
2018-08-25T10:57:11.728Z,56.49
2018-08-25T10:58:11.684Z,57.26
2018-08-25T10:59:11.651Z,57.35
2018-08-25T11:00:11.650Z,58.79
2018-08-25T11:01:11.637Z,62.04
2018-08-25T11:02:11.555Z,61.85
2018-08-25T11:03:11.522Z,61.47
2018-08-25T11:04:11.480Z,62.90
2018-08-25T11:05:11.440Z,64.05
2018-08-25T11:06:11.406Z,64.53
2018-08-25T11:07:11.371Z,64.43
2018-08-25T11:08:11.341Z,62.81
2018-08-25T11:09:11.307Z,63.29
2018-08-25T11:10:11.271Z,62.71
2018-08-25T11:11:11.235Z,60.64
2018-08-25T11:12:11.197Z,61.88
2018-08-25T11:13:11.165Z,61.11
2018-08-25T11:14:11.130Z,62.46
2018-08-25T11:15:11.096Z,61.69
2018-08-25T11:16:11.061Z,62.74
2018-08-25T11:17:11.027Z,62.07
2018-08-25T11:18:10.986Z,60.25
2018-08-25T11:19:10.955Z,64.47
2018-08-25T11:20:10.920Z,67.09
2018-08-25T11:21:10.890Z,68.62
2018-08-25T11:22:10.853Z,68.33
2018-08-25T11:23:10.819Z,70.25
2018-08-25T11:24:10.780Z,73.80
2018-08-25T11:25:10.743Z,72.84
2018-08-25T11:26:10.710Z,72.42
2018-08-25T11:27:10.678Z,71.69
2018-08-25T11:28:10.645Z,74.37
2018-08-25T11:29:10.655Z,75.23
2018-08-25T11:30:10.578Z,75.52
2018-08-25T11:31:10.537Z,76.96
2018-08-25T11:32:10.515Z,76.67
2018-08-25T11:33:10.474Z,77.44
2018-08-25T11:34:10.440Z,75.75
2018-08-25T11:35:10.403Z,76.23
2018-08-25T11:36:10.368Z,74.69
2018-08-25T11:37:10.372Z,76.81
2018-08-25T11:38:10.387Z,76.62
2018-08-25T11:39:10.264Z,79.30
2018-08-25T11:40:10.232Z,78.63
2018-08-25T11:41:10.203Z,78.44
2018-08-25T11:42:10.167Z,79.59
2018-08-25T11:43:10.131Z,78.34
2018-08-25T11:44:10.144Z,79.59
2018-08-25T11:45:10.064Z,80.83
2018-08-25T11:46:10.031Z,81.60
2018-08-25T11:47:10.002Z,80.35
2018-08-25T11:48:09.965Z,81.18
2018-08-25T11:49:09.923Z,81.12
2018-08-25T11:50:09.889Z,81.22
2018-08-25T11:51:09.866Z,81.22
2018-08-25T11:52:09.831Z,82.46
2018-08-25T11:53:09.793Z,81.70
2018-08-25T11:54:09.812Z,81.64
2018-08-25T11:55:09.725Z,81.07
2018-08-25T11:56:09.692Z,82.51
2018-08-25T11:57:09.650Z,81.84
2018-08-25T11:58:09.622Z,81.64
2018-08-25T11:59:09.588Z,80.91
2018-08-25T12:00:09.558Z,81.59
2018-08-25T12:01:09.525Z,81.16
2018-08-25T12:02:09.506Z,81.68
2018-08-25T12:03:09.454Z,82.21
2018-08-25T12:04:09.433Z,80.49
2018-08-25T12:05:09.390Z,80.20
2018-08-25T12:06:09.356Z,80.68
2018-08-25T12:07:09.318Z,80.40
2018-08-25T12:08:09.289Z,81.35
2018-08-25T12:09:09.248Z,81.93
2018-08-25T12:10:09.222Z,82.51
2018-08-25T12:11:09.187Z,82.70
2018-08-25T12:12:09.152Z,82.03
2018-08-25T12:13:09.124Z,82.45
2018-08-25T12:14:09.087Z,81.93
2018-08-25T12:15:09.050Z,81.93
2018-08-25T12:16:09.065Z,82.41
2018-08-25T12:17:08.980Z,81.84
2018-08-25T12:18:08.951Z,81.45
2018-08-25T12:19:08.915Z,81.45
2018-08-25T12:20:08.879Z,81.64
2018-08-25T12:21:08.846Z,80.01
2018-08-25T12:22:08.812Z,79.44
2018-08-25T12:23:08.778Z,78.77
2018-08-25T12:24:08.780Z,78.57
2018-08-25T12:25:08.716Z,76.84
2018-08-25T12:26:08.685Z,77.61
2018-08-25T12:27:08.646Z,77.94
2018-08-25T12:28:08.609Z,76.50
2018-08-25T12:29:08.574Z,77.08
2018-08-25T12:30:08.541Z,75.63
2018-08-25T12:31:08.514Z,75.63
2018-08-25T12:32:08.477Z,76.21
2018-08-25T12:33:08.444Z,75.79
2018-08-25T12:34:08.415Z,77.71
2018-08-25T12:35:08.376Z,78.96
2018-08-25T12:36:08.344Z,76.75
2018-08-25T12:37:08.310Z,76.17
2018-08-25T12:38:08.282Z,76.56
2018-08-25T12:39:08.323Z,75.60
2018-08-25T12:40:08.212Z,76.88
2018-08-25T12:41:08.172Z,77.71
2018-08-25T12:42:08.141Z,78.38
2018-08-25T12:43:08.157Z,79.91
2018-08-25T12:44:08.079Z,79.91
2018-08-25T12:45:08.101Z,79.82
2018-08-25T12:46:08.009Z,80.40
2018-08-25T12:47:07.978Z,81.41
2018-08-25T12:48:07.940Z,82.08
2018-08-25T12:49:07.914Z,83.04
2018-08-25T12:50:07.878Z,83.52
2018-08-25T12:51:07.842Z,83.71
2018-08-25T12:52:07.806Z,83.33
2018-08-25T12:53:07.771Z,82.94
2018-08-25T12:54:07.739Z,81.89
2018-08-25T12:55:07.706Z,82.18
2018-08-25T12:56:07.671Z,81.70
2018-08-25T12:57:07.639Z,81.60
2018-08-25T12:58:07.643Z,81.31
2018-08-25T12:59:08.590Z,81.89
2018-08-25T13:00:07.534Z,81.22
2018-08-25T13:01:07.504Z,82.18
2018-08-25T13:02:07.465Z,82.37
2018-08-25T13:03:07.432Z,81.79
2018-08-25T13:04:07.399Z,82.46
2018-08-25T13:05:07.373Z,82.18
2018-08-25T13:06:07.333Z,82.94
2018-08-25T13:07:07.323Z,82.37
2018-08-25T13:08:07.265Z,82.75
2018-08-25T13:09:07.250Z,82.85
2018-08-25T13:10:07.206Z,83.04
2018-08-25T13:11:07.163Z,82.89
2018-08-25T13:12:07.129Z,82.89
2018-08-25T13:13:07.155Z,82.03
2018-08-25T13:14:07.060Z,82.70
2018-08-25T13:15:07.027Z,82.41
2018-08-25T13:16:07.000Z,82.79
2018-08-25T13:17:06.964Z,82.12
2018-08-25T13:18:06.933Z,82.31
2018-08-25T13:19:06.895Z,81.93
2018-08-25T13:20:06.859Z,82.03
2018-08-25T13:21:06.827Z,82.41
2018-08-25T13:22:06.795Z,81.84
2018-08-25T13:23:06.760Z,81.16
2018-08-25T13:24:06.723Z,80.78
2018-08-25T13:25:06.689Z,80.20
2018-08-25T13:26:06.659Z,80.30
2018-08-25T13:27:06.630Z,80.11
2018-08-25T13:28:06.592Z,80.58